createdAt,value
2019-05-25T00:02:09.081Z,2.62
2019-05-25T00:04:38.340Z,2.43
2019-05-25T00:07:09.235Z,2.96
2019-05-25T00:09:38.464Z,3.00
2019-05-25T00:12:07.888Z,2.90
2019-05-25T00:14:37.132Z,2.85
2019-05-25T00:17:05.948Z,3.00
2019-05-25T00:19:34.844Z,2.90
2019-05-25T00:22:03.733Z,3.33
2019-05-25T00:24:32.623Z,2.87
2019-05-25T00:27:01.626Z,2.47
2019-05-25T00:29:30.509Z,3.10
2019-05-25T00:31:59.412Z,2.80
2019-05-25T00:34:28.289Z,3.27
2019-05-25T00:36:57.286Z,2.83
2019-05-25T00:39:26.175Z,2.60
2019-05-25T00:41:54.983Z,3.07
2019-05-25T00:44:25.414Z,2.70
2019-05-25T00:46:54.284Z,2.77
2019-05-25T00:49:23.173Z,3.43
2019-05-25T00:51:52.066Z,2.90
2019-05-25T00:54:27.906Z,3.30
2019-05-25T00:56:51.589Z,2.47
2019-05-25T00:59:20.623Z,3.10
2019-05-25T01:01:49.473Z,2.80
2019-05-25T01:04:18.363Z,2.80
2019-05-25T01:06:47.870Z,2.95
2019-05-25T01:09:16.761Z,3.50
2019-05-25T01:11:45.656Z,3.00
2019-05-25T01:14:14.444Z,2.67
2019-05-25T01:16:43.340Z,3.03
2019-05-25T01:19:12.229Z,3.00
2019-05-25T01:21:41.116Z,3.10
2019-05-25T01:24:10.416Z,3.03
2019-05-25T01:26:39.412Z,2.73
2019-05-25T01:29:08.611Z,2.70
2019-05-25T01:31:37.504Z,2.80
2019-05-25T01:34:07.419Z,2.80
2019-05-25T01:36:36.307Z,2.83
2019-05-25T01:39:07.391Z,2.80
2019-05-25T01:41:36.239Z,3.10
2019-05-25T01:44:05.328Z,2.90
2019-05-25T01:46:34.122Z,3.17
2019-05-25T01:49:03.017Z,2.42
2019-05-25T01:51:31.904Z,3.17
2019-05-25T01:54:00.698Z,2.73
2019-05-25T01:56:29.584Z,2.63
2019-05-25T01:58:58.479Z,3.08
2019-05-25T02:01:27.374Z,2.90
2019-05-25T02:03:57.692Z,3.57
2019-05-25T02:06:26.583Z,3.23
2019-05-25T02:08:55.476Z,3.17
2019-05-25T02:11:24.371Z,2.77
2019-05-25T02:13:53.259Z,3.17
2019-05-25T02:16:22.148Z,2.90
2019-05-25T02:18:50.937Z,3.00
2019-05-25T02:21:19.742Z,2.97
2019-05-25T02:23:48.619Z,3.20
2019-05-25T02:26:17.510Z,3.00
2019-05-25T02:28:46.398Z,3.08
2019-05-25T02:31:15.290Z,2.53
2019-05-25T02:33:44.180Z,3.03
2019-05-25T02:36:13.072Z,4.07
2019-05-25T02:38:41.963Z,3.30
2019-05-25T02:41:11.469Z,2.77
2019-05-25T02:43:40.361Z,3.00
2019-05-25T02:46:10.330Z,3.10
2019-05-25T02:48:39.169Z,3.17
2019-05-25T02:51:08.776Z,2.83
2019-05-25T02:53:37.670Z,3.30
2019-05-25T02:56:06.558Z,3.22
2019-05-25T02:58:35.450Z,3.10
2019-05-25T03:01:04.751Z,3.13
2019-05-25T03:03:33.743Z,3.00
2019-05-25T03:06:03.423Z,3.27
2019-05-25T03:08:32.962Z,3.20
2019-05-25T03:11:02.057Z,3.37
2019-05-25T03:13:32.789Z,3.30
2019-05-25T03:16:02.092Z,3.20
2019-05-25T03:18:30.984Z,3.12
2019-05-25T03:20:59.872Z,3.05
2019-05-25T03:23:28.767Z,3.30
2019-05-25T03:25:57.656Z,2.97
2019-05-25T03:28:26.446Z,2.90
2019-05-25T03:30:55.337Z,3.07
2019-05-25T03:33:24.331Z,3.63
2019-05-25T03:35:53.220Z,3.43
2019-05-25T03:38:22.111Z,3.77
2019-05-25T03:40:50.912Z,3.60
2019-05-25T03:43:19.796Z,3.45
2019-05-25T03:45:48.692Z,3.50
2019-05-25T03:48:17.572Z,3.17
2019-05-25T03:50:46.476Z,3.27
2019-05-25T03:53:15.358Z,3.60
2019-05-25T03:55:44.255Z,3.80
2019-05-25T03:58:13.041Z,3.47
2019-05-25T04:00:42.223Z,3.75
2019-05-25T04:03:11.431Z,3.53
2019-05-25T04:05:40.327Z,3.37
2019-05-25T04:08:09.598Z,3.03
2019-05-25T04:10:39.102Z,3.13
2019-05-25T04:13:08.962Z,3.25
2019-05-25T04:15:37.837Z,3.13
2019-05-25T04:18:06.728Z,3.60
2019-05-25T04:20:35.727Z,3.20
2019-05-25T04:23:04.712Z,3.20
2019-05-25T04:25:33.715Z,3.10
2019-05-25T04:28:02.597Z,3.15
2019-05-25T04:30:31.590Z,3.20
2019-05-25T04:33:00.488Z,2.93
2019-05-25T04:35:29.377Z,3.03
2019-05-25T04:37:58.263Z,3.40
2019-05-25T04:40:27.302Z,2.90
2019-05-25T04:42:56.272Z,3.10
2019-05-25T04:45:25.759Z,2.80
2019-05-25T04:47:54.647Z,3.20
2019-05-25T04:50:23.538Z,2.52
2019-05-25T04:52:52.436Z,2.90
2019-05-25T04:55:21.411Z,2.97
2019-05-25T04:57:50.214Z,3.12
2019-05-25T05:00:19.207Z,3.20
2019-05-25T05:02:48.098Z,3.17
2019-05-25T05:05:16.924Z,2.83
2019-05-25T05:07:45.777Z,3.37
2019-05-25T05:10:14.976Z,3.12
2019-05-25T05:12:43.874Z,2.87
2019-05-25T05:15:14.443Z,3.55
2019-05-25T05:17:43.289Z,3.70
2019-05-25T05:20:13.614Z,3.80
2019-05-25T05:22:42.818Z,3.30
2019-05-25T05:25:12.737Z,3.50
2019-05-25T05:27:41.616Z,3.33
2019-05-25T05:30:11.438Z,3.50
2019-05-25T05:32:40.320Z,3.90
2019-05-25T05:35:09.804Z,3.72
2019-05-25T05:37:40.254Z,3.33
2019-05-25T05:40:10.071Z,4.03
2019-05-25T05:42:41.066Z,3.47
2019-05-25T05:45:12.520Z,3.70
2019-05-25T05:47:43.946Z,3.53
2019-05-25T05:50:13.636Z,3.40
2019-05-25T05:52:42.511Z,3.80
2019-05-25T05:55:12.766Z,3.60
2019-05-25T05:57:44.292Z,3.63
2019-05-25T06:00:14.201Z,4.00
2019-05-25T06:02:43.093Z,3.57
2019-05-25T06:05:13.575Z,4.45
2019-05-25T06:07:42.412Z,4.10
2019-05-25T06:10:13.733Z,3.77
2019-05-25T06:12:42.653Z,3.53
2019-05-25T06:15:13.115Z,3.75
2019-05-25T06:17:41.969Z,3.80
2019-05-25T06:20:11.382Z,3.70
2019-05-25T06:22:40.265Z,3.60
2019-05-25T06:25:10.401Z,3.85
2019-05-25T06:27:39.275Z,3.53
2019-05-25T06:30:09.059Z,3.75
2019-05-25T06:32:38.230Z,3.53
2019-05-25T06:35:07.265Z,3.30
2019-05-25T06:37:36.068Z,3.60
2019-05-25T06:40:06.997Z,3.45
2019-05-25T06:42:36.003Z,3.40
2019-05-25T06:45:06.029Z,3.67
2019-05-25T06:47:34.911Z,4.20
2019-05-25T06:50:05.429Z,4.47
2019-05-25T06:52:34.338Z,3.93
2019-05-25T06:55:03.312Z,3.72
2019-05-25T06:57:42.503Z,4.20
2019-05-25T07:00:02.969Z,3.87
2019-05-25T07:02:32.485Z,4.05
2019-05-25T07:05:01.351Z,5.35
2019-05-25T07:07:30.240Z,4.37
2019-05-25T07:09:59.129Z,4.20
2019-05-25T07:12:28.125Z,4.60
2019-05-25T07:14:57.013Z,4.47
2019-05-25T07:17:25.903Z,5.22
2019-05-25T07:19:54.809Z,4.47
2019-05-25T07:22:23.943Z,4.80
2019-05-25T07:24:52.807Z,4.33
2019-05-25T07:27:22.085Z,5.17
2019-05-25T07:29:51.008Z,4.90
2019-05-25T07:32:19.866Z,4.97
2019-05-25T07:34:48.761Z,4.80
2019-05-25T07:37:17.649Z,4.70
2019-05-25T07:39:46.541Z,5.33
2019-05-25T07:42:15.439Z,5.00
2019-05-25T07:44:44.323Z,5.30
2019-05-25T07:47:13.111Z,7.20
2019-05-25T07:49:42.105Z,4.37
2019-05-25T07:52:11.201Z,4.92
2019-05-25T07:54:40.092Z,4.15
2019-05-25T07:57:09.904Z,4.02
2019-05-25T07:59:38.796Z,4.20
2019-05-25T08:02:08.285Z,4.00
2019-05-25T08:04:37.197Z,4.05
2019-05-25T08:07:06.086Z,4.05
2019-05-25T08:09:34.873Z,4.37
2019-05-25T08:12:03.763Z,3.80
2019-05-25T08:14:32.758Z,3.80
2019-05-25T08:17:01.754Z,4.50
2019-05-25T08:19:30.648Z,4.73
2019-05-25T08:21:59.537Z,4.47
2019-05-25T08:24:28.424Z,4.73
2019-05-25T08:26:57.316Z,4.42
2019-05-25T08:29:26.208Z,4.80
2019-05-25T08:31:54.997Z,4.25
2019-05-25T08:34:23.889Z,4.77
2019-05-25T08:36:52.676Z,4.62
2019-05-25T08:39:21.569Z,5.00
2019-05-25T08:41:50.462Z,4.90
2019-05-25T08:44:19.350Z,5.07
2019-05-25T08:46:48.253Z,4.62
2019-05-25T08:49:17.131Z,5.10
2019-05-25T08:51:46.027Z,4.87
2019-05-25T08:54:14.916Z,4.55
2019-05-25T08:56:43.806Z,4.53
2019-05-25T08:59:12.803Z,4.92
2019-05-25T09:01:41.717Z,4.87
2019-05-25T09:04:11.344Z,4.98
2019-05-25T09:06:40.189Z,5.25
2019-05-25T09:09:09.866Z,5.16
2019-05-25T09:11:38.689Z,5.40
2019-05-25T09:14:08.504Z,4.78
2019-05-25T09:16:37.395Z,5.85
2019-05-25T09:19:06.285Z,5.40
2019-05-25T09:21:35.176Z,5.53
2019-05-25T09:24:04.169Z,5.83
2019-05-25T09:26:33.064Z,6.12
2019-05-25T09:29:04.784Z,5.90
2019-05-25T09:31:32.484Z,5.62
2019-05-25T09:34:01.379Z,5.78
2019-05-25T09:36:30.263Z,5.63
2019-05-25T09:38:59.163Z,6.05
2019-05-25T09:41:28.046Z,5.23
2019-05-25T09:43:56.954Z,5.50
2019-05-25T09:46:25.828Z,5.60
2019-05-25T09:48:54.722Z,6.10
2019-05-25T09:51:25.150Z,5.83
2019-05-25T09:53:54.041Z,5.42
2019-05-25T09:56:23.237Z,5.03
2019-05-25T09:58:52.127Z,5.45
2019-05-25T10:01:21.124Z,4.93
2019-05-25T10:03:50.013Z,4.78
2019-05-25T10:06:18.904Z,3.87
2019-05-25T10:08:47.897Z,4.35
2019-05-25T10:11:16.893Z,4.90
2019-05-25T10:13:45.804Z,4.20
2019-05-25T10:16:14.809Z,3.98
2019-05-25T10:18:43.674Z,3.70
2019-05-25T10:21:14.958Z,4.10
2019-05-25T10:23:43.301Z,3.87
2019-05-25T10:26:12.697Z,4.35
2019-05-25T10:28:41.586Z,4.50
2019-05-25T10:31:11.301Z,3.80
2019-05-25T10:33:40.193Z,3.98
2019-05-25T10:36:09.390Z,3.70
2019-05-25T10:38:38.280Z,4.10
2019-05-25T10:41:07.277Z,4.40
2019-05-25T10:43:36.171Z,4.37
2019-05-25T10:46:05.162Z,4.35
2019-05-25T10:48:35.175Z,3.85
2019-05-25T10:51:05.667Z,3.60
2019-05-25T10:53:34.595Z,3.60
2019-05-25T10:56:03.488Z,3.65
2019-05-25T10:58:32.379Z,3.50
2019-05-25T11:01:01.276Z,4.20
2019-05-25T11:03:30.160Z,3.53
2019-05-25T11:05:59.054Z,3.35
2019-05-25T11:08:27.943Z,3.57
2019-05-25T11:10:58.271Z,3.80
2019-05-25T11:13:27.170Z,3.60
2019-05-25T11:15:56.052Z,3.65
2019-05-25T11:18:24.942Z,4.30
2019-05-25T11:20:53.837Z,4.55
2019-05-25T11:23:24.157Z,3.87
2019-05-25T11:25:53.119Z,4.83
2019-05-25T11:28:23.173Z,4.20
2019-05-25T11:30:52.063Z,3.85
2019-05-25T11:33:22.105Z,3.72
2019-05-25T11:35:50.975Z,3.52
2019-05-25T11:38:19.963Z,4.53
2019-05-25T11:40:48.861Z,4.15
2019-05-25T11:43:17.746Z,4.33
2019-05-25T11:45:46.635Z,4.30
2019-05-25T11:48:15.428Z,5.73
2019-05-25T11:50:44.315Z,4.58
2019-05-25T11:53:13.206Z,4.40
2019-05-25T11:55:42.097Z,6.03
2019-05-25T11:58:11.197Z,5.62
2019-05-25T12:00:41.319Z,3.95
2019-05-25T12:03:10.511Z,3.98
2019-05-25T12:05:39.304Z,4.35
2019-05-25T12:08:08.500Z,4.75
2019-05-25T12:10:37.493Z,3.62
2019-05-25T12:13:06.385Z,3.83
2019-05-25T12:15:36.711Z,5.03
2019-05-25T12:18:07.535Z,4.75
2019-05-25T12:20:36.339Z,3.80
2019-05-25T12:23:05.401Z,4.08
2019-05-25T12:25:34.321Z,3.80
2019-05-25T12:28:03.227Z,4.00
2019-05-25T12:30:40.868Z,4.57
2019-05-25T12:33:02.738Z,4.25
2019-05-25T12:35:33.064Z,3.80
2019-05-25T12:38:01.986Z,3.55
2019-05-25T12:40:32.462Z,4.00
2019-05-25T12:43:01.382Z,4.10
2019-05-25T12:45:30.269Z,3.80
2019-05-25T12:47:59.159Z,3.62
2019-05-25T12:50:28.047Z,3.43
2019-05-25T12:52:56.945Z,3.85
2019-05-25T12:55:25.834Z,4.00
2019-05-25T12:57:54.725Z,4.30
2019-05-25T13:00:24.023Z,3.60
2019-05-25T13:02:52.916Z,3.65
2019-05-25T13:05:33.623Z,3.87
2019-05-25T13:07:53.463Z,4.20
2019-05-25T13:10:25.013Z,4.45
2019-05-25T13:12:53.933Z,3.92
2019-05-25T13:15:22.819Z,4.33
2019-05-25T13:17:51.793Z,4.08
2019-05-25T13:20:20.993Z,4.40
2019-05-25T13:22:49.885Z,4.55
2019-05-25T13:25:18.780Z,4.20
2019-05-25T13:27:47.671Z,4.05
2019-05-25T13:30:17.904Z,3.85
2019-05-25T13:32:46.782Z,4.10
2019-05-25T13:35:15.906Z,4.63
2019-05-25T13:37:44.770Z,4.37
2019-05-25T13:40:13.963Z,4.53
2019-05-25T13:42:42.856Z,3.95
2019-05-25T13:45:13.382Z,4.66
2019-05-25T13:47:42.279Z,4.30
2019-05-25T13:50:12.141Z,4.18
2019-05-25T13:52:41.079Z,4.72
2019-05-25T13:55:10.728Z,5.15
2019-05-25T13:57:39.787Z,5.97
2019-05-25T14:00:09.389Z,5.08
2019-05-25T14:02:38.289Z,6.03
2019-05-25T14:05:07.681Z,5.92
2019-05-25T14:07:36.580Z,6.25
2019-05-25T14:10:08.288Z,5.70
2019-05-25T14:12:37.231Z,6.35
2019-05-25T14:15:08.036Z,5.95
2019-05-25T14:17:37.061Z,5.85
2019-05-25T14:20:07.691Z,5.78
2019-05-25T14:22:36.581Z,6.05
2019-05-25T14:25:07.230Z,5.83
2019-05-25T14:27:36.105Z,6.70
2019-05-25T14:30:06.203Z,6.22
2019-05-25T14:32:35.123Z,6.45
2019-05-25T14:35:04.517Z,6.53
2019-05-25T14:37:33.410Z,6.42
2019-05-25T14:40:02.304Z,7.00
2019-05-25T14:42:31.194Z,6.70
2019-05-25T14:45:00.103Z,6.60
2019-05-25T14:47:29.178Z,6.90
2019-05-25T14:49:58.099Z,7.28
2019-05-25T14:52:26.962Z,7.13
2019-05-25T14:54:55.851Z,6.78
2019-05-25T14:57:24.856Z,6.60
2019-05-25T14:59:53.738Z,7.45
2019-05-25T15:02:22.631Z,8.78
2019-05-25T15:04:51.521Z,8.60
2019-05-25T15:07:20.411Z,7.33
2019-05-25T15:09:49.302Z,7.72
2019-05-25T15:12:19.626Z,7.07
2019-05-25T15:14:48.519Z,6.62
2019-05-25T15:17:17.408Z,7.60
2019-05-25T15:19:46.299Z,6.58
2019-05-25T15:22:15.342Z,6.67
2019-05-25T15:24:44.492Z,6.53
2019-05-25T15:27:13.382Z,5.93
2019-05-25T15:29:42.274Z,5.90
2019-05-25T15:32:20.188Z,5.92
2019-05-25T15:34:42.311Z,5.87
2019-05-25T15:37:12.331Z,5.22
2019-05-25T15:39:41.220Z,5.20
2019-05-25T15:42:10.521Z,4.47
2019-05-25T15:44:39.414Z,4.90
2019-05-25T15:47:08.478Z,4.85
2019-05-25T15:49:37.402Z,4.37
2019-05-25T15:52:06.600Z,4.05
2019-05-25T15:54:35.488Z,4.25
2019-05-25T15:57:04.689Z,4.28
2019-05-25T15:59:33.679Z,4.33
2019-05-25T16:02:02.682Z,4.80
2019-05-25T16:04:31.667Z,4.47
2019-05-25T16:07:00.459Z,4.30
2019-05-25T16:09:29.351Z,4.43
2019-05-25T16:11:58.242Z,4.42
2019-05-25T16:14:27.161Z,4.22
2019-05-25T16:16:56.022Z,5.70
2019-05-25T16:19:24.910Z,5.80
2019-05-25T16:21:53.814Z,6.45
2019-05-25T16:24:22.665Z,6.17
2019-05-25T16:26:51.585Z,6.05
2019-05-25T16:29:20.503Z,6.72
2019-05-25T16:31:49.367Z,5.50
2019-05-25T16:34:18.363Z,6.13
2019-05-25T16:36:47.251Z,6.15
2019-05-25T16:39:16.144Z,4.17
2019-05-25T16:41:45.147Z,3.92
2019-05-25T16:44:14.028Z,3.47
2019-05-25T16:46:42.822Z,3.85
2019-05-25T16:49:11.943Z,3.55
2019-05-25T16:51:40.802Z,3.77
2019-05-25T16:54:09.900Z,3.27
2019-05-25T16:56:41.248Z,2.98
2019-05-25T16:59:10.858Z,2.84
2019-05-25T17:01:48.194Z,3.60
2019-05-25T17:04:11.548Z,3.06
2019-05-25T17:06:40.618Z,3.70
2019-05-25T17:09:10.115Z,3.62
2019-05-25T17:11:39.005Z,3.40
2019-05-25T17:14:08.683Z,3.02
2019-05-25T17:16:39.041Z,3.47
2019-05-25T17:19:08.864Z,3.80
2019-05-25T17:21:37.739Z,3.87
2019-05-25T17:24:09.207Z,3.82
2019-05-25T17:26:38.083Z,3.95
2019-05-25T17:29:07.968Z,3.87
2019-05-25T17:31:36.911Z,3.70
2019-05-25T17:34:06.004Z,4.00
2019-05-25T17:36:34.877Z,4.12
2019-05-25T17:39:03.966Z,4.70
2019-05-25T17:41:32.864Z,4.42
2019-05-25T17:44:01.755Z,4.10
2019-05-25T17:46:30.701Z,4.37
2019-05-25T17:48:59.655Z,4.65
2019-05-25T17:51:28.531Z,3.77
2019-05-25T17:53:58.861Z,4.50
2019-05-25T17:56:27.752Z,4.20
2019-05-25T17:58:57.181Z,4.00
2019-05-25T18:01:26.044Z,3.87
2019-05-25T18:04:06.350Z,4.45
2019-05-25T18:06:25.772Z,3.85
2019-05-25T18:08:54.762Z,4.13
2019-05-25T18:11:23.654Z,4.27
2019-05-25T18:13:52.750Z,4.53
2019-05-25T18:16:25.135Z,4.77
2019-05-25T18:18:54.016Z,4.62
2019-05-25T18:21:22.903Z,5.03
2019-05-25T18:23:51.798Z,4.60
2019-05-25T18:26:20.583Z,5.25
2019-05-25T18:28:49.387Z,5.00
2019-05-25T18:31:18.263Z,5.53
2019-05-25T18:33:47.156Z,4.85
2019-05-25T18:36:16.045Z,6.33
2019-05-25T18:38:44.939Z,5.47
2019-05-25T18:41:15.670Z,6.55
2019-05-25T18:43:44.569Z,6.63
2019-05-25T18:46:13.458Z,7.12
2019-05-25T18:48:42.250Z,6.47
2019-05-25T18:51:11.544Z,5.90
2019-05-25T18:53:40.437Z,5.60
2019-05-25T18:56:09.635Z,6.03
2019-05-25T18:58:38.525Z,6.15
2019-05-25T19:01:08.242Z,5.95
2019-05-25T19:03:38.661Z,6.28
2019-05-25T19:06:07.656Z,5.80
2019-05-25T19:08:36.445Z,5.70
2019-05-25T19:11:05.440Z,6.20
2019-05-25T19:13:34.329Z,5.40
2019-05-25T19:16:03.397Z,5.22
2019-05-25T19:18:32.316Z,5.58
2019-05-25T19:21:01.220Z,5.47
2019-05-25T19:23:30.101Z,12.63
2019-05-25T19:25:59.093Z,5.80
2019-05-25T19:28:27.983Z,5.83
2019-05-25T19:30:56.878Z,5.30
2019-05-25T19:33:25.767Z,4.47
2019-05-25T19:35:56.093Z,5.83
2019-05-25T19:38:24.985Z,5.40
2019-05-25T19:40:53.875Z,5.80
2019-05-25T19:43:23.689Z,6.33
2019-05-25T19:45:52.782Z,5.33
2019-05-25T19:48:21.639Z,5.73
2019-05-25T19:50:50.465Z,5.47
2019-05-25T19:53:19.357Z,5.50
2019-05-25T19:55:49.473Z,4.90
2019-05-25T19:58:18.366Z,4.07
2019-05-25T20:00:47.249Z,4.60
2019-05-25T20:03:16.147Z,4.77
2019-05-25T20:05:45.656Z,5.73
2019-05-25T20:08:14.544Z,5.50
2019-05-25T20:10:43.537Z,4.83
2019-05-25T20:13:12.429Z,5.08
2019-05-25T20:15:41.321Z,4.30
2019-05-25T20:18:11.340Z,4.33
2019-05-25T20:20:41.766Z,4.20
2019-05-25T20:23:11.419Z,4.00
2019-05-25T20:25:40.266Z,4.93
2019-05-25T20:28:09.261Z,4.50
2019-05-25T20:30:38.053Z,4.63
2019-05-25T20:33:06.938Z,4.33
2019-05-25T20:35:35.829Z,4.90
2019-05-25T20:38:04.720Z,4.13
2019-05-25T20:40:33.612Z,4.17
2019-05-25T20:43:03.943Z,4.33
2019-05-25T20:45:32.831Z,3.62
2019-05-25T20:48:01.723Z,4.47
2019-05-25T20:50:30.625Z,5.47
2019-05-25T20:52:59.504Z,3.87
2019-05-25T20:55:28.394Z,4.63
2019-05-25T20:57:57.283Z,4.90
2019-05-25T21:00:26.176Z,4.03
2019-05-25T21:03:05.387Z,4.63
2019-05-25T21:05:25.697Z,4.40
2019-05-25T21:07:54.591Z,4.50
2019-05-25T21:10:23.481Z,4.33
2019-05-25T21:12:52.375Z,4.33
2019-05-25T21:15:21.365Z,3.75
2019-05-25T21:17:50.255Z,3.03
2019-05-25T21:20:19.254Z,3.10
2019-05-25T21:22:48.139Z,2.80
2019-05-25T21:25:17.970Z,2.93
2019-05-25T21:27:46.846Z,3.47
2019-05-25T21:30:16.927Z,3.30
2019-05-25T21:32:45.863Z,3.73
2019-05-25T21:35:14.843Z,3.30
2019-05-25T21:37:43.639Z,3.73
2019-05-25T21:40:13.451Z,3.47
2019-05-25T21:42:42.349Z,3.33
2019-05-25T21:45:12.752Z,3.25
2019-05-25T21:47:41.662Z,3.70
2019-05-25T21:50:11.338Z,3.02
2019-05-25T21:52:41.701Z,2.80
2019-05-25T21:55:11.059Z,3.12
2019-05-25T21:57:39.886Z,2.70
2019-05-25T22:00:12.173Z,2.13
2019-05-25T22:02:41.151Z,2.70
2019-05-25T22:05:11.785Z,2.40
2019-05-25T22:07:40.573Z,3.23
2019-05-25T22:10:10.909Z,3.00
2019-05-25T22:12:40.487Z,3.13
2019-05-25T22:15:12.238Z,3.10
2019-05-25T22:17:41.060Z,3.57
2019-05-25T22:20:10.697Z,2.83
2019-05-25T22:22:39.654Z,2.73
2019-05-25T22:25:09.027Z,2.00
2019-05-25T22:27:37.809Z,2.30
2019-05-25T22:30:09.390Z,2.27
2019-05-25T22:32:38.393Z,2.13
2019-05-25T22:35:08.278Z,2.10
2019-05-25T22:37:37.099Z,1.80
2019-05-25T22:40:07.934Z,2.03
2019-05-25T22:42:36.830Z,2.20
2019-05-25T22:45:08.228Z,2.17
2019-05-25T22:47:37.074Z,2.40
2019-05-25T22:50:06.647Z,2.30
2019-05-25T22:52:35.564Z,2.27
2019-05-25T22:55:08.138Z,1.77
2019-05-25T22:57:36.940Z,1.73
2019-05-25T23:00:09.332Z,1.80
2019-05-25T23:02:38.195Z,1.30
2019-05-25T23:05:08.848Z,1.23
2019-05-25T23:07:37.829Z,1.67
2019-05-25T23:10:08.414Z,1.53
2019-05-25T23:12:37.344Z,1.40
2019-05-25T23:15:07.737Z,1.53
2019-05-25T23:17:36.565Z,1.30
2019-05-25T23:20:07.805Z,1.17
2019-05-25T23:22:36.702Z,1.40
2019-05-25T23:25:05.899Z,1.60
2019-05-25T23:27:34.859Z,1.20
2019-05-25T23:30:04.293Z,1.30
2019-05-25T23:32:33.273Z,1.20
2019-05-25T23:35:02.081Z,1.10
2019-05-25T23:37:30.966Z,1.67
2019-05-25T23:39:59.857Z,1.30
2019-05-25T23:42:28.748Z,1.10
2019-05-25T23:44:57.543Z,1.00
2019-05-25T23:47:26.428Z,1.13
2019-05-25T23:49:55.218Z,1.03
2019-05-25T23:52:24.108Z,0.93
2019-05-25T23:54:53.004Z,1.00
2019-05-25T23:57:22.914Z,1.00
2019-05-25T23:59:51.805Z,0.80
